Eureka, CA

04:05 PM PDT die 24o October, anno 2014 (GMT -0700)
Henderson Center | Change Station
CLOSE
Current Station
Personal Weather Stations
Location: Eureka, CA
Elevation: 125 ft
Nearby Weather Stations
Active Advisory: Wind Advisory

Elev 125 ft 40.78 °N, 124.17 °W | Updated 1 second ago

Serena
Serena
73.4 °F
Feels Like 76 °F
N
6.3
Ventus Variabilis Ventus from Magis Eurus quam Auster
Gusts 6.3 mph

Hodie
High -- | Low -- °F
--% Chance of Precip.
Yesterday
High -- | Low -- °F
Precip. -- in
7:37 AM 6:22 PM
New, 1% visible
Pressio 29.74 in
Visibilitas 10.0 milia passuum
Clouds Serena
Index Caloris 76 °F
Frigus in quo Ros apparet 36 °F
Umor 26%
Rainfall 0.28 in
Snow Depth Not available.
UV 2 out of 12
Pollen 1.40 out of 12
Air Quality Not available.
Flu Activity Sporadic
METAR KACV 242253Z AUTO 20014G21KT 10SM CLR 22/12 A2973 RMK AO2 SLP070 T02170122

More Conditions Fewer Conditions

Pressio 29.74 in
Visibilitas 10.0 milia passuum
Clouds Serena
Index Caloris 76 °F
Frigus in quo Ros apparet 36 °F
Umor 26%
Rainfall 0.28 in
Snow Depth Not available.
UV 2 out of 12
Pollen 1.40 out of 12
Air Quality Not available.
Flu Activity Sporadic
METAR KACV 242253Z AUTO 20014G21KT 10SM CLR 22/12 A2973 RMK AO2 SLP070 T02170122

More Conditions Fewer Conditions

10-Day Weather Forecast

Almanac

Astronomy

Oct. 24, 2014 Rise Set
Actual Time 7:37 AM PDT 6:22 PM PDT
Civil Twilight 7:09 AM PDT 6:50 PM PDT
Nautical Twilight 6:37 AM PDT 7:22 PM PDT
Astronomical Twilight 6:06 AM PDT 7:54 PM PDT
Moon 8:22 AM PDT 7:06 PM PDT
Length Of Visible Light 11h 41m
Length of Day
10h 45m
Tomorrow will be 2m 30s shorter.
New, 1% of the Moon is Illuminated
Hodie
New
Oct 30
First Quarter
Nov 6
Full
Nov 14
Last Quarter
Nov 22
New

Today's Extremes

State Highs State Lows

Community

WunderPhotos

Upload Photos

1,764,705 photos uploaded!

Nearby

Snow Depth

Station Depth Elevation
Adin Mountain 0 in 6200 ft
Ward Creek #3 12 in 6750 ft
Summit Meadow 0 in 9122 ft
Leavitt Meadows 0 in 7200 ft

Earthquake Activity

City Distance Mag. Time & Date
No recent earthquake activity has been reported nearby.
Minimum magnitude displayed is 2.5.

Coastal Water Temperatures

Locus Calor
North Spit, CA 57.9 °F
Crescent City, CA 60.1 °F

Nearby Weather Stations